sensor_id;sensor_type;location;lat;lon;timestamp;P1;durP1;ratioP1;P2;durP2;ratioP2
79308;SDS011;68767;53.078;7.386;2023-11-19T00:01:38;32.67;;;13.55;;
79308;SDS011;68767;53.078;7.386;2023-11-19T00:04:05;37.25;;;14.10;;
79308;SDS011;68767;53.078;7.386;2023-11-19T00:06:32;37.33;;;13.48;;
79308;SDS011;68767;53.078;7.386;2023-11-19T00:08:59;36.97;;;15.25;;
79308;SDS011;68767;53.078;7.386;2023-11-19T00:11:26;36.85;;;13.70;;
79308;SDS011;68767;53.078;7.386;2023-11-19T00:13:53;38.67;;;15.55;;
79308;SDS011;68767;53.078;7.386;2023-11-19T00:16:20;38.70;;;14.57;;
79308;SDS011;68767;53.078;7.386;2023-11-19T00:18:47;40.28;;;15.85;;
79308;SDS011;68767;53.078;7.386;2023-11-19T00:21:14;39.45;;;14.40;;
79308;SDS011;68767;53.078;7.386;2023-11-19T00:23:41;41.22;;;15.40;;
79308;SDS011;68767;53.078;7.386;2023-11-19T00:26:08;38.03;;;13.85;;
79308;SDS011;68767;53.078;7.386;2023-11-19T00:28:36;35.03;;;13.85;;
79308;SDS011;68767;53.078;7.386;2023-11-19T00:31:05;40.08;;;14.05;;
79308;SDS011;68767;53.078;7.386;2023-11-19T00:33:32;35.70;;;13.88;;
79308;SDS011;68767;53.078;7.386;2023-11-19T00:35:59;41.30;;;14.02;;
79308;SDS011;68767;53.078;7.386;2023-11-19T00:38:26;34.47;;;12.63;;
79308;SDS011;68767;53.078;7.386;2023-11-19T00:40:53;38.53;;;14.93;;
79308;SDS011;68767;53.078;7.386;2023-11-19T00:43:19;39.78;;;14.23;;
79308;SDS011;68767;53.078;7.386;2023-11-19T00:45:50;36.00;;;13.23;;
79308;SDS011;68767;53.078;7.386;2023-11-19T00:48:17;43.92;;;15.80;;
79308;SDS011;68767;53.078;7.386;2023-11-19T00:50:45;36.85;;;12.90;;
79308;SDS011;68767;53.078;7.386;2023-11-19T00:53:12;39.28;;;14.98;;
79308;SDS011;68767;53.078;7.386;2023-11-19T00:55:40;31.48;;;12.70;;
79308;SDS011;68767;53.078;7.386;2023-11-19T00:58:10;45.30;;;13.95;;
79308;SDS011;68767;53.078;7.386;2023-11-19T01:00:37;40.33;;;14.48;;
79308;SDS011;68767;53.078;7.386;2023-11-19T01:03:04;42.83;;;14.20;;
79308;SDS011;68767;53.078;7.386;2023-11-19T01:05:36;42.65;;;14.73;;
79308;SDS011;68767;53.078;7.386;2023-11-19T01:08:05;40.45;;;14.50;;
79308;SDS011;68767;53.078;7.386;2023-11-19T01:10:33;35.40;;;11.85;;
79308;SDS011;68767;53.078;7.386;2023-11-19T01:13:00;38.35;;;14.13;;
79308;SDS011;68767;53.078;7.386;2023-11-19T01:15:27;43.28;;;14.35;;
79308;SDS011;68767;53.078;7.386;2023-11-19T01:17:54;45.67;;;14.85;;
79308;SDS011;68767;53.078;7.386;2023-11-19T01:20:21;45.35;;;14.18;;
79308;SDS011;68767;53.078;7.386;2023-11-19T01:22:51;36.78;;;13.02;;
79308;SDS011;68767;53.078;7.386;2023-11-19T01:25:18;43.13;;;15.00;;
79308;SDS011;68767;53.078;7.386;2023-11-19T01:27:46;44.50;;;15.23;;
79308;SDS011;68767;53.078;7.386;2023-11-19T01:30:13;50.50;;;14.18;;
79308;SDS011;68767;53.078;7.386;2023-11-19T01:32:43;43.78;;;16.55;;
79308;SDS011;68767;53.078;7.386;2023-11-19T01:35:11;46.20;;;16.40;;
79308;SDS011;68767;53.078;7.386;2023-11-19T01:37:39;45.60;;;16.95;;
79308;SDS011;68767;53.078;7.386;2023-11-19T01:40:09;52.10;;;16.30;;
79308;SDS011;68767;53.078;7.386;2023-11-19T01:42:38;52.10;;;16.58;;
79308;SDS011;68767;53.078;7.386;2023-11-19T01:45:06;50.08;;;15.73;;
79308;SDS011;68767;53.078;7.386;2023-11-19T01:47:47;44.17;;;15.95;;
79308;SDS011;68767;53.078;7.386;2023-11-19T01:50:15;45.92;;;15.60;;
79308;SDS011;68767;53.078;7.386;2023-11-19T01:52:41;61.25;;;18.15;;
79308;SDS011;68767;53.078;7.386;2023-11-19T01:55:12;51.47;;;18.40;;
79308;SDS011;68767;53.078;7.386;2023-11-19T01:57:39;50.95;;;16.98;;
79308;SDS011;68767;53.078;7.386;2023-11-19T02:00:08;44.65;;;15.73;;
79308;SDS011;68767;53.078;7.386;2023-11-19T02:02:39;46.08;;;16.52;;
79308;SDS011;68767;53.078;7.386;2023-11-19T02:05:08;49.55;;;16.58;;
79308;SDS011;68767;53.078;7.386;2023-11-19T02:07:40;50.47;;;15.77;;
79308;SDS011;68767;53.078;7.386;2023-11-19T02:10:07;53.78;;;16.92;;
79308;SDS011;68767;53.078;7.386;2023-11-19T02:12:42;46.20;;;15.55;;
79308;SDS011;68767;53.078;7.386;2023-11-19T02:15:10;56.03;;;17.30;;
79308;SDS011;68767;53.078;7.386;2023-11-19T02:17:37;49.83;;;18.02;;
79308;SDS011;68767;53.078;7.386;2023-11-19T02:20:05;41.65;;;15.43;;
79308;SDS011;68767;53.078;7.386;2023-11-19T02:22:38;49.25;;;14.88;;
79308;SDS011;68767;53.078;7.386;2023-11-19T02:25:19;41.22;;;15.05;;
79308;SDS011;68767;53.078;7.386;2023-11-19T02:27:57;53.92;;;17.40;;
79308;SDS011;68767;53.078;7.386;2023-11-19T02:30:26;40.60;;;14.30;;
79308;SDS011;68767;53.078;7.386;2023-11-19T02:35:29;53.72;;;15.88;;
79308;SDS011;68767;53.078;7.386;2023-11-19T02:38:01;54.17;;;17.52;;
79308;SDS011;68767;53.078;7.386;2023-11-19T02:40:30;54.35;;;15.95;;
79308;SDS011;68767;53.078;7.386;2023-11-19T02:42:57;51.88;;;13.88;;
79308;SDS011;68767;53.078;7.386;2023-11-19T02:45:26;43.15;;;14.18;;
79308;SDS011;68767;53.078;7.386;2023-11-19T02:47:54;34.17;;;13.27;;
79308;SDS011;68767;53.078;7.386;2023-11-19T02:50:24;46.85;;;13.82;;
79308;SDS011;68767;53.078;7.386;2023-11-19T02:52:52;46.35;;;12.45;;
79308;SDS011;68767;53.078;7.386;2023-11-19T02:55:22;46.13;;;12.68;;
79308;SDS011;68767;53.078;7.386;2023-11-19T02:57:53;40.72;;;14.02;;
79308;SDS011;68767;53.078;7.386;2023-11-19T03:00:21;47.60;;;13.95;;
79308;SDS011;68767;53.078;7.386;2023-11-19T03:02:58;31.02;;;9.70;;
79308;SDS011;68767;53.078;7.386;2023-11-19T03:05:26;37.95;;;12.05;;
79308;SDS011;68767;53.078;7.386;2023-11-19T03:07:57;37.15;;;11.50;;
79308;SDS011;68767;53.078;7.386;2023-11-19T03:10:24;33.70;;;10.60;;
79308;SDS011;68767;53.078;7.386;2023-11-19T03:12:51;41.58;;;11.30;;
79308;SDS011;68767;53.078;7.386;2023-11-19T03:15:18;42.53;;;10.77;;
79308;SDS011;68767;53.078;7.386;2023-11-19T03:17:46;36.95;;;11.15;;
79308;SDS011;68767;53.078;7.386;2023-11-19T03:20:13;32.35;;;9.30;;
79308;SDS011;68767;53.078;7.386;2023-11-19T03:22:43;43.58;;;12.07;;
79308;SDS011;68767;53.078;7.386;2023-11-19T03:25:13;36.42;;;9.95;;
79308;SDS011;68767;53.078;7.386;2023-11-19T03:27:40;32.90;;;9.00;;
79308;SDS011;68767;53.078;7.386;2023-11-19T03:30:08;43.20;;;10.23;;
79308;SDS011;68767;53.078;7.386;2023-11-19T03:32:36;26.58;;;9.07;;
79308;SDS011;68767;53.078;7.386;2023-11-19T03:35:05;41.38;;;10.50;;
79308;SDS011;68767;53.078;7.386;2023-11-19T03:37:37;40.90;;;10.38;;
79308;SDS011;68767;53.078;7.386;2023-11-19T03:40:04;34.30;;;10.40;;
79308;SDS011;68767;53.078;7.386;2023-11-19T03:42:31;35.75;;;9.43;;
79308;SDS011;68767;53.078;7.386;2023-11-19T03:44:58;42.08;;;9.43;;
79308;SDS011;68767;53.078;7.386;2023-11-19T03:47:26;27.17;;;6.90;;
79308;SDS011;68767;53.078;7.386;2023-11-19T03:49:53;45.95;;;8.32;;
79308;SDS011;68767;53.078;7.386;2023-11-19T03:52:20;27.85;;;5.95;;
79308;SDS011;68767;53.078;7.386;2023-11-19T03:54:48;31.85;;;6.28;;
79308;SDS011;68767;53.078;7.386;2023-11-19T03:57:15;32.97;;;5.68;;
79308;SDS011;68767;53.078;7.386;2023-11-19T03:59:45;24.13;;;6.03;;
79308;SDS011;68767;53.078;7.386;2023-11-19T04:02:12;38.42;;;5.88;;
79308;SDS011;68767;53.078;7.386;2023-11-19T04:04:40;30.05;;;6.32;;
79308;SDS011;68767;53.078;7.386;2023-11-19T04:07:07;35.15;;;5.72;;
79308;SDS011;68767;53.078;7.386;2023-11-19T04:09:34;36.78;;;6.63;;
79308;SDS011;68767;53.078;7.386;2023-11-19T04:12:01;33.33;;;6.00;;
79308;SDS011;68767;53.078;7.386;2023-11-19T04:14:28;35.53;;;5.13;;
79308;SDS011;68767;53.078;7.386;2023-11-19T04:16:55;34.58;;;6.15;;
79308;SDS011;68767;53.078;7.386;2023-11-19T04:19:22;33.25;;;6.00;;
79308;SDS011;68767;53.078;7.386;2023-11-19T04:21:49;26.27;;;6.03;;
79308;SDS011;68767;53.078;7.386;2023-11-19T04:24:16;36.03;;;5.85;;
79308;SDS011;68767;53.078;7.386;2023-11-19T04:26:44;43.83;;;7.32;;
79308;SDS011;68767;53.078;7.386;2023-11-19T04:29:14;41.15;;;6.88;;
79308;SDS011;68767;53.078;7.386;2023-11-19T04:31:46;64.78;;;20.80;;
79308;SDS011;68767;53.078;7.386;2023-11-19T04:34:13;36.05;;;4.95;;
79308;SDS011;68767;53.078;7.386;2023-11-19T04:36:40;39.60;;;5.90;;
79308;SDS011;68767;53.078;7.386;2023-11-19T04:39:07;34.92;;;5.75;;
79308;SDS011;68767;53.078;7.386;2023-11-19T04:41:49;39.22;;;6.45;;
79308;SDS011;68767;53.078;7.386;2023-11-19T04:44:16;33.83;;;7.40;;
79308;SDS011;68767;53.078;7.386;2023-11-19T04:46:44;38.85;;;5.43;;
79308;SDS011;68767;53.078;7.386;2023-11-19T04:49:11;30.15;;;5.10;;
79308;SDS011;68767;53.078;7.386;2023-11-19T04:54:08;40.95;;;6.45;;
79308;SDS011;68767;53.078;7.386;2023-11-19T04:56:36;26.20;;;6.22;;
79308;SDS011;68767;53.078;7.386;2023-11-19T04:59:04;25.23;;;3.97;;
79308;SDS011;68767;53.078;7.386;2023-11-19T05:01:32;35.05;;;6.20;;
79308;SDS011;68767;53.078;7.386;2023-11-19T05:04:00;35.40;;;5.82;;
79308;SDS011;68767;53.078;7.386;2023-11-19T05:06:28;24.08;;;4.05;;
79308;SDS011;68767;53.078;7.386;2023-11-19T05:08:59;26.45;;;4.85;;
79308;SDS011;68767;53.078;7.386;2023-11-19T05:11:34;46.30;;;9.00;;
79308;SDS011;68767;53.078;7.386;2023-11-19T05:14:17;30.13;;;5.70;;
79308;SDS011;68767;53.078;7.386;2023-11-19T05:16:46;31.50;;;5.60;;
79308;SDS011;68767;53.078;7.386;2023-11-19T05:19:13;27.80;;;4.57;;
79308;SDS011;68767;53.078;7.386;2023-11-19T05:21:44;35.95;;;5.65;;
79308;SDS011;68767;53.078;7.386;2023-11-19T05:24:11;38.38;;;5.43;;
79308;SDS011;68767;53.078;7.386;2023-11-19T05:26:38;39.20;;;5.28;;
79308;SDS011;68767;53.078;7.386;2023-11-19T05:29:05;34.95;;;4.63;;
79308;SDS011;68767;53.078;7.386;2023-11-19T05:31:32;53.10;;;6.28;;
79308;SDS011;68767;53.078;7.386;2023-11-19T05:34:03;38.63;;;4.88;;
79308;SDS011;68767;53.078;7.386;2023-11-19T05:36:32;39.53;;;7.57;;
79308;SDS011;68767;53.078;7.386;2023-11-19T05:38:59;38.17;;;5.43;;
79308;SDS011;68767;53.078;7.386;2023-11-19T05:41:26;37.13;;;6.95;;
79308;SDS011;68767;53.078;7.386;2023-11-19T05:43:54;46.65;;;6.15;;
79308;SDS011;68767;53.078;7.386;2023-11-19T05:46:21;43.28;;;7.07;;
79308;SDS011;68767;53.078;7.386;2023-11-19T05:48:48;39.22;;;4.65;;
79308;SDS011;68767;53.078;7.386;2023-11-19T05:51:15;44.22;;;7.15;;
79308;SDS011;68767;53.078;7.386;2023-11-19T05:53:43;40.90;;;5.20;;
79308;SDS011;68767;53.078;7.386;2023-11-19T05:56:10;27.00;;;5.47;;
79308;SDS011;68767;53.078;7.386;2023-11-19T05:58:37;46.08;;;6.03;;
79308;SDS011;68767;53.078;7.386;2023-11-19T06:01:05;33.97;;;5.20;;
79308;SDS011;68767;53.078;7.386;2023-11-19T06:03:35;46.92;;;5.80;;
79308;SDS011;68767;53.078;7.386;2023-11-19T06:06:03;34.08;;;5.65;;
79308;SDS011;68767;53.078;7.386;2023-11-19T06:08:31;33.33;;;5.63;;
79308;SDS011;68767;53.078;7.386;2023-11-19T06:10:59;22.13;;;5.82;;
79308;SDS011;68767;53.078;7.386;2023-11-19T06:13:28;55.60;;;7.15;;
79308;SDS011;68767;53.078;7.386;2023-11-19T06:15:58;42.63;;;9.75;;
79308;SDS011;68767;53.078;7.386;2023-11-19T06:18:25;44.55;;;5.38;;
79308;SDS011;68767;53.078;7.386;2023-11-19T06:20:52;50.63;;;7.47;;
79308;SDS011;68767;53.078;7.386;2023-11-19T06:23:19;44.20;;;6.50;;
79308;SDS011;68767;53.078;7.386;2023-11-19T06:25:46;35.20;;;5.75;;
79308;SDS011;68767;53.078;7.386;2023-11-19T06:28:13;44.30;;;6.20;;
79308;SDS011;68767;53.078;7.386;2023-11-19T06:30:40;58.40;;;7.90;;
79308;SDS011;68767;53.078;7.386;2023-11-19T06:33:09;39.40;;;4.78;;
79308;SDS011;68767;53.078;7.386;2023-11-19T06:35:39;40.17;;;6.07;;
79308;SDS011;68767;53.078;7.386;2023-11-19T06:38:06;44.47;;;5.22;;
79308;SDS011;68767;53.078;7.386;2023-11-19T06:40:33;37.88;;;5.95;;
79308;SDS011;68767;53.078;7.386;2023-11-19T06:43:03;37.08;;;5.53;;
79308;SDS011;68767;53.078;7.386;2023-11-19T06:45:31;35.60;;;5.15;;
79308;SDS011;68767;53.078;7.386;2023-11-19T06:48:00;38.85;;;5.65;;
79308;SDS011;68767;53.078;7.386;2023-11-19T06:50:30;34.42;;;5.93;;
79308;SDS011;68767;53.078;7.386;2023-11-19T06:52:58;33.00;;;8.38;;
79308;SDS011;68767;53.078;7.386;2023-11-19T06:55:26;36.30;;;5.03;;
79308;SDS011;68767;53.078;7.386;2023-11-19T06:57:53;37.47;;;6.40;;
79308;SDS011;68767;53.078;7.386;2023-11-19T07:00:20;36.60;;;5.45;;
79308;SDS011;68767;53.078;7.386;2023-11-19T07:02:47;47.30;;;6.63;;
79308;SDS011;68767;53.078;7.386;2023-11-19T07:05:15;43.95;;;6.45;;
79308;SDS011;68767;53.078;7.386;2023-11-19T07:07:42;47.38;;;6.75;;
79308;SDS011;68767;53.078;7.386;2023-11-19T07:10:08;42.83;;;6.28;;
79308;SDS011;68767;53.078;7.386;2023-11-19T07:12:36;40.33;;;5.45;;
79308;SDS011;68767;53.078;7.386;2023-11-19T07:15:04;36.28;;;5.82;;
79308;SDS011;68767;53.078;7.386;2023-11-19T07:17:32;48.60;;;6.22;;
79308;SDS011;68767;53.078;7.386;2023-11-19T07:19:59;48.35;;;5.68;;
79308;SDS011;68767;53.078;7.386;2023-11-19T07:22:26;34.28;;;5.70;;
79308;SDS011;68767;53.078;7.386;2023-11-19T07:24:56;36.70;;;6.22;;
79308;SDS011;68767;53.078;7.386;2023-11-19T07:27:29;44.67;;;7.72;;
79308;SDS011;68767;53.078;7.386;2023-11-19T07:29:56;32.00;;;5.38;;
79308;SDS011;68767;53.078;7.386;2023-11-19T07:32:24;46.35;;;5.40;;
79308;SDS011;68767;53.078;7.386;2023-11-19T07:34:51;26.38;;;4.13;;
79308;SDS011;68767;53.078;7.386;2023-11-19T07:37:18;25.65;;;4.30;;
79308;SDS011;68767;53.078;7.386;2023-11-19T07:39:45;44.25;;;6.00;;
79308;SDS011;68767;53.078;7.386;2023-11-19T07:42:12;49.72;;;5.32;;
79308;SDS011;68767;53.078;7.386;2023-11-19T07:44:39;38.53;;;6.63;;
79308;SDS011;68767;53.078;7.386;2023-11-19T07:47:06;40.35;;;5.68;;
79308;SDS011;68767;53.078;7.386;2023-11-19T07:49:32;38.05;;;5.90;;
79308;SDS011;68767;53.078;7.386;2023-11-19T07:52:00;51.63;;;6.57;;
79308;SDS011;68767;53.078;7.386;2023-11-19T07:54:26;40.25;;;6.47;;
79308;SDS011;68767;53.078;7.386;2023-11-19T07:56:53;36.00;;;4.97;;
79308;SDS011;68767;53.078;7.386;2023-11-19T07:59:21;43.47;;;6.43;;
79308;SDS011;68767;53.078;7.386;2023-11-19T08:01:48;36.75;;;4.90;;
79308;SDS011;68767;53.078;7.386;2023-11-19T08:04:15;46.40;;;7.00;;
79308;SDS011;68767;53.078;7.386;2023-11-19T08:06:42;47.28;;;5.70;;
79308;SDS011;68767;53.078;7.386;2023-11-19T08:09:09;47.50;;;6.70;;
79308;SDS011;68767;53.078;7.386;2023-11-19T08:11:41;28.02;;;4.95;;
79308;SDS011;68767;53.078;7.386;2023-11-19T08:14:10;41.97;;;5.47;;
79308;SDS011;68767;53.078;7.386;2023-11-19T08:16:39;33.83;;;4.75;;
79308;SDS011;68767;53.078;7.386;2023-11-19T08:19:06;35.90;;;5.75;;
79308;SDS011;68767;53.078;7.386;2023-11-19T08:21:33;50.97;;;7.00;;
79308;SDS011;68767;53.078;7.386;2023-11-19T08:24:00;32.10;;;4.85;;
79308;SDS011;68767;53.078;7.386;2023-11-19T08:26:27;40.15;;;4.60;;
79308;SDS011;68767;53.078;7.386;2023-11-19T08:28:54;50.22;;;6.75;;
79308;SDS011;68767;53.078;7.386;2023-11-19T08:31:20;36.60;;;5.38;;
79308;SDS011;68767;53.078;7.386;2023-11-19T08:33:47;41.15;;;5.28;;
79308;SDS011;68767;53.078;7.386;2023-11-19T08:36:15;49.13;;;6.10;;
79308;SDS011;68767;53.078;7.386;2023-11-19T08:38:43;34.55;;;7.80;;
79308;SDS011;68767;53.078;7.386;2023-11-19T08:41:10;45.33;;;6.88;;
79308;SDS011;68767;53.078;7.386;2023-11-19T08:43:38;32.72;;;4.93;;
79308;SDS011;68767;53.078;7.386;2023-11-19T08:46:11;38.40;;;6.28;;
79308;SDS011;68767;53.078;7.386;2023-11-19T08:48:39;37.05;;;5.68;;
79308;SDS011;68767;53.078;7.386;2023-11-19T08:51:06;46.50;;;5.93;;
79308;SDS011;68767;53.078;7.386;2023-11-19T08:53:33;50.40;;;6.57;;
79308;SDS011;68767;53.078;7.386;2023-11-19T08:56:01;56.63;;;6.20;;
79308;SDS011;68767;53.078;7.386;2023-11-19T08:58:30;45.25;;;6.82;;
79308;SDS011;68767;53.078;7.386;2023-11-19T09:01:01;42.22;;;7.30;;
79308;SDS011;68767;53.078;7.386;2023-11-19T09:03:30;44.25;;;5.85;;
79308;SDS011;68767;53.078;7.386;2023-11-19T09:05:59;42.88;;;5.93;;
79308;SDS011;68767;53.078;7.386;2023-11-19T09:08:26;46.72;;;5.85;;
79308;SDS011;68767;53.078;7.386;2023-11-19T09:10:53;44.10;;;5.65;;
79308;SDS011;68767;53.078;7.386;2023-11-19T09:13:21;44.80;;;6.10;;
79308;SDS011;68767;53.078;7.386;2023-11-19T09:15:51;44.50;;;5.38;;
79308;SDS011;68767;53.078;7.386;2023-11-19T09:18:18;37.58;;;4.90;;
79308;SDS011;68767;53.078;7.386;2023-11-19T09:20:48;44.85;;;5.72;;
79308;SDS011;68767;53.078;7.386;2023-11-19T09:25:44;34.72;;;5.18;;
79308;SDS011;68767;53.078;7.386;2023-11-19T09:28:11;37.67;;;5.38;;
79308;SDS011;68767;53.078;7.386;2023-11-19T09:30:40;65.82;;;6.88;;
79308;SDS011;68767;53.078;7.386;2023-11-19T09:33:07;38.58;;;4.78;;
79308;SDS011;68767;53.078;7.386;2023-11-19T09:35:34;46.92;;;5.07;;
79308;SDS011;68767;53.078;7.386;2023-11-19T09:38:02;39.45;;;5.80;;
79308;SDS011;68767;53.078;7.386;2023-11-19T09:40:31;48.83;;;6.18;;
79308;SDS011;68767;53.078;7.386;2023-11-19T09:42:58;35.38;;;5.53;;
79308;SDS011;68767;53.078;7.386;2023-11-19T09:45:27;40.22;;;5.57;;
79308;SDS011;68767;53.078;7.386;2023-11-19T09:47:54;54.47;;;7.80;;
79308;SDS011;68767;53.078;7.386;2023-11-19T09:50:26;50.15;;;6.22;;
79308;SDS011;68767;53.078;7.386;2023-11-19T09:52:54;45.60;;;5.63;;
79308;SDS011;68767;53.078;7.386;2023-11-19T09:55:21;50.55;;;6.55;;
79308;SDS011;68767;53.078;7.386;2023-11-19T09:57:48;42.78;;;5.65;;
79308;SDS011;68767;53.078;7.386;2023-11-19T10:00:19;50.33;;;7.15;;
79308;SDS011;68767;53.078;7.386;2023-11-19T10:02:47;46.13;;;5.90;;
79308;SDS011;68767;53.078;7.386;2023-11-19T10:05:20;45.30;;;9.13;;
79308;SDS011;68767;53.078;7.386;2023-11-19T10:07:50;49.90;;;9.13;;
79308;SDS011;68767;53.078;7.386;2023-11-19T10:10:17;39.50;;;6.78;;
79308;SDS011;68767;53.078;7.386;2023-11-19T10:12:46;38.00;;;5.97;;
79308;SDS011;68767;53.078;7.386;2023-11-19T10:15:22;44.47;;;6.85;;
79308;SDS011;68767;53.078;7.386;2023-11-19T10:17:51;41.97;;;6.40;;
79308;SDS011;68767;53.078;7.386;2023-11-19T10:20:21;44.53;;;5.97;;
79308;SDS011;68767;53.078;7.386;2023-11-19T10:22:52;40.00;;;6.00;;
79308;SDS011;68767;53.078;7.386;2023-11-19T10:25:22;45.53;;;6.70;;
79308;SDS011;68767;53.078;7.386;2023-11-19T10:27:52;47.50;;;5.25;;
79308;SDS011;68767;53.078;7.386;2023-11-19T10:30:23;28.70;;;4.97;;
79308;SDS011;68767;53.078;7.386;2023-11-19T10:35:34;31.30;;;5.82;;
79308;SDS011;68767;53.078;7.386;2023-11-19T10:38:15;48.25;;;6.93;;
79308;SDS011;68767;53.078;7.386;2023-11-19T10:40:43;49.60;;;5.32;;
79308;SDS011;68767;53.078;7.386;2023-11-19T10:43:10;48.50;;;6.45;;
79308;SDS011;68767;53.078;7.386;2023-11-19T10:45:37;36.72;;;4.22;;
79308;SDS011;68767;53.078;7.386;2023-11-19T10:48:05;36.55;;;4.70;;
79308;SDS011;68767;53.078;7.386;2023-11-19T10:50:34;30.95;;;4.88;;
79308;SDS011;68767;53.078;7.386;2023-11-19T10:53:06;45.28;;;5.57;;
79308;SDS011;68767;53.078;7.386;2023-11-19T10:55:35;39.80;;;8.75;;
79308;SDS011;68767;53.078;7.386;2023-11-19T10:58:05;36.42;;;5.07;;
79308;SDS011;68767;53.078;7.386;2023-11-19T11:00:43;33.05;;;5.35;;
79308;SDS011;68767;53.078;7.386;2023-11-19T11:03:18;45.55;;;6.20;;
79308;SDS011;68767;53.078;7.386;2023-11-19T11:05:50;48.83;;;6.93;;
79308;SDS011;68767;53.078;7.386;2023-11-19T11:08:18;41.40;;;5.85;;
79308;SDS011;68767;53.078;7.386;2023-11-19T11:10:48;43.33;;;6.63;;
79308;SDS011;68767;53.078;7.386;2023-11-19T11:13:22;52.95;;;6.47;;
79308;SDS011;68767;53.078;7.386;2023-11-19T11:15:57;36.08;;;6.57;;
79308;SDS011;68767;53.078;7.386;2023-11-19T11:18:25;42.20;;;5.97;;
79308;SDS011;68767;53.078;7.386;2023-11-19T11:20:56;42.47;;;5.97;;
79308;SDS011;68767;53.078;7.386;2023-11-19T11:26:25;34.47;;;4.72;;
79308;SDS011;68767;53.078;7.386;2023-11-19T11:43:49;22.55;;;3.30;;
79308;SDS011;68767;53.078;7.386;2023-11-19T11:49:05;23.40;;;4.20;;
79308;SDS011;68767;53.078;7.386;2023-11-19T12:04:37;21.77;;;3.17;;
79308;SDS011;68767;53.078;7.386;2023-11-19T12:07:17;20.15;;;4.15;;
79308;SDS011;68767;53.078;7.386;2023-11-19T12:09:53;22.10;;;3.75;;
79308;SDS011;68767;53.078;7.386;2023-11-19T12:12:31;16.42;;;3.35;;
79308;SDS011;68767;53.078;7.386;2023-11-19T12:15:03;26.63;;;3.78;;
79308;SDS011;68767;53.078;7.386;2023-11-19T12:20:00;39.15;;;5.43;;
79308;SDS011;68767;53.078;7.386;2023-11-19T12:22:38;22.45;;;4.93;;
79308;SDS011;68767;53.078;7.386;2023-11-19T12:25:07;38.20;;;5.63;;
79308;SDS011;68767;53.078;7.386;2023-11-19T12:27:36;36.88;;;4.30;;
79308;SDS011;68767;53.078;7.386;2023-11-19T12:30:08;27.15;;;4.45;;
79308;SDS011;68767;53.078;7.386;2023-11-19T12:35:06;33.08;;;5.15;;
79308;SDS011;68767;53.078;7.386;2023-11-19T12:40:12;39.08;;;4.00;;
79308;SDS011;68767;53.078;7.386;2023-11-19T12:42:41;30.20;;;3.83;;
79308;SDS011;68767;53.078;7.386;2023-11-19T12:45:09;33.67;;;4.70;;
79308;SDS011;68767;53.078;7.386;2023-11-19T12:47:41;33.00;;;4.43;;
79308;SDS011;68767;53.078;7.386;2023-11-19T12:50:10;38.20;;;5.32;;
79308;SDS011;68767;53.078;7.386;2023-11-19T12:52:37;38.10;;;5.68;;
79308;SDS011;68767;53.078;7.386;2023-11-19T12:55:05;39.53;;;5.85;;
79308;SDS011;68767;53.078;7.386;2023-11-19T12:57:55;41.30;;;4.50;;
79308;SDS011;68767;53.078;7.386;2023-11-19T13:00:23;37.70;;;5.55;;
79308;SDS011;68767;53.078;7.386;2023-11-19T13:02:52;33.90;;;5.15;;
79308;SDS011;68767;53.078;7.386;2023-11-19T13:08:12;32.25;;;5.40;;
79308;SDS011;68767;53.078;7.386;2023-11-19T13:11:13;46.92;;;11.52;;
79308;SDS011;68767;53.078;7.386;2023-11-19T13:13:33;33.33;;;4.45;;
79308;SDS011;68767;53.078;7.386;2023-11-19T13:16:16;43.15;;;5.28;;
79308;SDS011;68767;53.078;7.386;2023-11-19T13:18:46;34.83;;;4.47;;
79308;SDS011;68767;53.078;7.386;2023-11-19T13:21:14;30.90;;;4.50;;
79308;SDS011;68767;53.078;7.386;2023-11-19T13:23:48;31.13;;;5.65;;
79308;SDS011;68767;53.078;7.386;2023-11-19T13:26:21;21.27;;;3.92;;
79308;SDS011;68767;53.078;7.386;2023-11-19T13:28:48;34.58;;;4.82;;
79308;SDS011;68767;53.078;7.386;2023-11-19T13:31:15;31.40;;;5.07;;
79308;SDS011;68767;53.078;7.386;2023-11-19T13:33:44;34.35;;;5.18;;
79308;SDS011;68767;53.078;7.386;2023-11-19T13:36:12;30.45;;;5.75;;
79308;SDS011;68767;53.078;7.386;2023-11-19T13:38:43;27.85;;;4.63;;
79308;SDS011;68767;53.078;7.386;2023-11-19T13:41:12;28.60;;;5.25;;
79308;SDS011;68767;53.078;7.386;2023-11-19T13:43:43;25.58;;;4.20;;
79308;SDS011;68767;53.078;7.386;2023-11-19T13:46:10;49.05;;;10.68;;
79308;SDS011;68767;53.078;7.386;2023-11-19T13:48:37;36.33;;;10.43;;
79308;SDS011;68767;53.078;7.386;2023-11-19T13:51:05;29.85;;;4.80;;
79308;SDS011;68767;53.078;7.386;2023-11-19T13:53:32;27.33;;;4.65;;
79308;SDS011;68767;53.078;7.386;2023-11-19T13:56:17;31.83;;;4.82;;
79308;SDS011;68767;53.078;7.386;2023-11-19T13:58:44;32.10;;;5.03;;
79308;SDS011;68767;53.078;7.386;2023-11-19T14:01:11;21.75;;;3.35;;
79308;SDS011;68767;53.078;7.386;2023-11-19T14:03:43;30.92;;;5.55;;
79308;SDS011;68767;53.078;7.386;2023-11-19T14:06:10;30.98;;;5.70;;
79308;SDS011;68767;53.078;7.386;2023-11-19T14:08:39;24.80;;;5.40;;
79308;SDS011;68767;53.078;7.386;2023-11-19T14:11:06;40.80;;;5.40;;
79308;SDS011;68767;53.078;7.386;2023-11-19T14:13:33;28.50;;;3.45;;
79308;SDS011;68767;53.078;7.386;2023-11-19T14:16:01;35.35;;;5.20;;
79308;SDS011;68767;53.078;7.386;2023-11-19T14:18:28;27.90;;;5.55;;
79308;SDS011;68767;53.078;7.386;2023-11-19T14:20:57;42.15;;;6.40;;
79308;SDS011;68767;53.078;7.386;2023-11-19T14:23:24;37.90;;;5.32;;
79308;SDS011;68767;53.078;7.386;2023-11-19T14:25:54;36.80;;;5.00;;
79308;SDS011;68767;53.078;7.386;2023-11-19T14:28:21;34.13;;;4.05;;
79308;SDS011;68767;53.078;7.386;2023-11-19T14:30:48;49.70;;;7.00;;
79308;SDS011;68767;53.078;7.386;2023-11-19T14:33:20;36.60;;;5.47;;
79308;SDS011;68767;53.078;7.386;2023-11-19T14:35:47;43.47;;;5.18;;
79308;SDS011;68767;53.078;7.386;2023-11-19T14:38:15;40.92;;;5.80;;
79308;SDS011;68767;53.078;7.386;2023-11-19T14:40:42;42.63;;;10.25;;
79308;SDS011;68767;53.078;7.386;2023-11-19T14:43:09;32.72;;;5.28;;
79308;SDS011;68767;53.078;7.386;2023-11-19T14:45:37;32.55;;;3.67;;
79308;SDS011;68767;53.078;7.386;2023-11-19T14:48:15;35.50;;;4.22;;
79308;SDS011;68767;53.078;7.386;2023-11-19T14:50:42;31.05;;;3.65;;
79308;SDS011;68767;53.078;7.386;2023-11-19T14:53:11;25.63;;;4.15;;
79308;SDS011;68767;53.078;7.386;2023-11-19T14:55:38;34.05;;;4.65;;
79308;SDS011;68767;53.078;7.386;2023-11-19T14:58:05;38.40;;;5.50;;
79308;SDS011;68767;53.078;7.386;2023-11-19T15:00:37;43.30;;;5.45;;
79308;SDS011;68767;53.078;7.386;2023-11-19T15:03:04;34.20;;;4.47;;
79308;SDS011;68767;53.078;7.386;2023-11-19T15:05:33;33.13;;;4.85;;
79308;SDS011;68767;53.078;7.386;2023-11-19T15:08:01;47.67;;;5.35;;
79308;SDS011;68767;53.078;7.386;2023-11-19T15:10:32;17.58;;;4.00;;
79308;SDS011;68767;53.078;7.386;2023-11-19T15:13:08;24.75;;;4.40;;
79308;SDS011;68767;53.078;7.386;2023-11-19T15:15:46;43.35;;;5.57;;
79308;SDS011;68767;53.078;7.386;2023-11-19T15:18:14;42.45;;;5.90;;
79308;SDS011;68767;53.078;7.386;2023-11-19T15:20:40;35.67;;;4.60;;
79308;SDS011;68767;53.078;7.386;2023-11-19T15:23:08;34.28;;;5.50;;
79308;SDS011;68767;53.078;7.386;2023-11-19T15:25:40;29.30;;;5.40;;
79308;SDS011;68767;53.078;7.386;2023-11-19T15:28:08;37.17;;;6.20;;
79308;SDS011;68767;53.078;7.386;2023-11-19T15:30:36;29.10;;;4.50;;
79308;SDS011;68767;53.078;7.386;2023-11-19T15:33:04;27.33;;;4.47;;
79308;SDS011;68767;53.078;7.386;2023-11-19T15:35:32;28.05;;;4.82;;